sensor_id;sensor_type;location;lat;lon;timestamp;P1;durP1;ratioP1;P2;durP2;ratioP2
66923;SDS011;53835;47.984;7.844;2022-08-19T00:00:31;9.48;;;7.40;;
66923;SDS011;53835;47.984;7.844;2022-08-19T00:02:58;8.70;;;7.87;;
66923;SDS011;53835;47.984;7.844;2022-08-19T00:05:25;8.60;;;7.70;;
66923;SDS011;53835;47.984;7.844;2022-08-19T00:07:53;8.23;;;7.10;;
66923;SDS011;53835;47.984;7.844;2022-08-19T00:10:20;8.97;;;8.10;;
66923;SDS011;53835;47.984;7.844;2022-08-19T00:12:48;9.48;;;8.50;;
66923;SDS011;53835;47.984;7.844;2022-08-19T00:15:16;8.90;;;8.20;;
66923;SDS011;53835;47.984;7.844;2022-08-19T00:17:44;8.08;;;7.33;;
66923;SDS011;53835;47.984;7.844;2022-08-19T00:20:12;8.17;;;7.40;;
66923;SDS011;53835;47.984;7.844;2022-08-19T00:22:42;8.65;;;7.75;;
66923;SDS011;53835;47.984;7.844;2022-08-19T00:25:10;8.98;;;7.15;;
66923;SDS011;53835;47.984;7.844;2022-08-19T00:27:37;8.53;;;7.73;;
66923;SDS011;53835;47.984;7.844;2022-08-19T00:30:06;7.97;;;7.22;;
66923;SDS011;53835;47.984;7.844;2022-08-19T00:32:34;8.20;;;7.22;;
66923;SDS011;53835;47.984;7.844;2022-08-19T00:35:01;8.38;;;7.67;;
66923;SDS011;53835;47.984;7.844;2022-08-19T00:37:28;9.23;;;8.33;;
66923;SDS011;53835;47.984;7.844;2022-08-19T00:39:56;9.20;;;8.20;;
66923;SDS011;53835;47.984;7.844;2022-08-19T00:42:23;8.70;;;7.92;;
66923;SDS011;53835;47.984;7.844;2022-08-19T00:44:52;12.00;;;8.70;;
66923;SDS011;53835;47.984;7.844;2022-08-19T00:47:19;9.03;;;8.13;;
66923;SDS011;53835;47.984;7.844;2022-08-19T00:49:48;9.43;;;8.45;;
66923;SDS011;53835;47.984;7.844;2022-08-19T00:52:25;9.23;;;8.43;;
66923;SDS011;53835;47.984;7.844;2022-08-19T00:54:48;10.60;;;9.70;;
66923;SDS011;53835;47.984;7.844;2022-08-19T00:57:17;10.20;;;9.30;;
66923;SDS011;53835;47.984;7.844;2022-08-19T00:59:46;11.23;;;9.30;;
66923;SDS011;53835;47.984;7.844;2022-08-19T01:02:14;10.80;;;9.80;;
66923;SDS011;53835;47.984;7.844;2022-08-19T01:04:41;10.15;;;9.25;;
66923;SDS011;53835;47.984;7.844;2022-08-19T01:07:09;10.93;;;9.85;;
66923;SDS011;53835;47.984;7.844;2022-08-19T01:09:36;10.58;;;9.65;;
66923;SDS011;53835;47.984;7.844;2022-08-19T01:12:03;11.10;;;9.93;;
66923;SDS011;53835;47.984;7.844;2022-08-19T01:14:31;10.38;;;9.30;;
66923;SDS011;53835;47.984;7.844;2022-08-19T01:16:58;11.00;;;9.83;;
66923;SDS011;53835;47.984;7.844;2022-08-19T01:19:28;11.08;;;10.15;;
66923;SDS011;53835;47.984;7.844;2022-08-19T01:22:02;10.75;;;9.75;;
66923;SDS011;53835;47.984;7.844;2022-08-19T01:24:29;10.48;;;9.38;;
66923;SDS011;53835;47.984;7.844;2022-08-19T01:26:57;11.22;;;10.10;;
66923;SDS011;53835;47.984;7.844;2022-08-19T01:29:24;11.00;;;9.90;;
66923;SDS011;53835;47.984;7.844;2022-08-19T01:31:51;12.20;;;9.77;;
66923;SDS011;53835;47.984;7.844;2022-08-19T01:34:19;10.38;;;9.40;;
66923;SDS011;53835;47.984;7.844;2022-08-19T01:36:47;11.03;;;9.95;;
66923;SDS011;53835;47.984;7.844;2022-08-19T01:39:22;11.30;;;10.20;;
66923;SDS011;53835;47.984;7.844;2022-08-19T01:41:50;10.25;;;9.25;;
66923;SDS011;53835;47.984;7.844;2022-08-19T01:44:19;10.55;;;9.50;;
66923;SDS011;53835;47.984;7.844;2022-08-19T01:46:48;10.97;;;9.60;;
66923;SDS011;53835;47.984;7.844;2022-08-19T01:49:20;10.25;;;9.25;;
66923;SDS011;53835;47.984;7.844;2022-08-19T01:51:48;10.63;;;9.63;;
66923;SDS011;53835;47.984;7.844;2022-08-19T01:54:17;10.45;;;9.53;;
66923;SDS011;53835;47.984;7.844;2022-08-19T01:56:44;11.07;;;9.97;;
66923;SDS011;53835;47.984;7.844;2022-08-19T01:59:16;11.23;;;10.13;;
66923;SDS011;53835;47.984;7.844;2022-08-19T02:01:43;11.53;;;10.53;;
66923;SDS011;53835;47.984;7.844;2022-08-19T02:04:11;10.68;;;9.70;;
66923;SDS011;53835;47.984;7.844;2022-08-19T02:06:38;10.15;;;9.08;;
66923;SDS011;53835;47.984;7.844;2022-08-19T02:09:06;11.70;;;10.35;;
66923;SDS011;53835;47.984;7.844;2022-08-19T02:11:34;10.95;;;9.90;;
66923;SDS011;53835;47.984;7.844;2022-08-19T02:14:03;12.35;;;10.15;;
66923;SDS011;53835;47.984;7.844;2022-08-19T02:16:31;10.53;;;9.53;;
66923;SDS011;53835;47.984;7.844;2022-08-19T02:18:59;10.83;;;9.73;;
66923;SDS011;53835;47.984;7.844;2022-08-19T02:21:27;11.70;;;9.40;;
66923;SDS011;53835;47.984;7.844;2022-08-19T02:23:55;10.32;;;9.43;;
66923;SDS011;53835;47.984;7.844;2022-08-19T02:26:23;10.08;;;9.18;;
66923;SDS011;53835;47.984;7.844;2022-08-19T02:28:52;13.05;;;10.43;;
66923;SDS011;53835;47.984;7.844;2022-08-19T02:31:21;10.33;;;9.37;;
66923;SDS011;53835;47.984;7.844;2022-08-19T02:33:49;10.17;;;9.20;;
66923;SDS011;53835;47.984;7.844;2022-08-19T02:36:16;11.33;;;10.23;;
66923;SDS011;53835;47.984;7.844;2022-08-19T02:38:44;11.57;;;10.20;;
66923;SDS011;53835;47.984;7.844;2022-08-19T02:41:16;12.35;;;10.32;;
66923;SDS011;53835;47.984;7.844;2022-08-19T02:43:43;11.95;;;10.75;;
66923;SDS011;53835;47.984;7.844;2022-08-19T02:46:17;11.10;;;10.00;;
66923;SDS011;53835;47.984;7.844;2022-08-19T02:48:39;10.58;;;9.55;;
66923;SDS011;53835;47.984;7.844;2022-08-19T02:51:07;11.03;;;9.90;;
66923;SDS011;53835;47.984;7.844;2022-08-19T02:53:34;12.63;;;10.80;;
66923;SDS011;53835;47.984;7.844;2022-08-19T02:56:06;11.28;;;9.98;;
66923;SDS011;53835;47.984;7.844;2022-08-19T02:58:32;12.20;;;10.97;;
66923;SDS011;53835;47.984;7.844;2022-08-19T03:00:59;11.47;;;10.33;;
66923;SDS011;53835;47.984;7.844;2022-08-19T03:03:26;11.70;;;10.70;;
66923;SDS011;53835;47.984;7.844;2022-08-19T03:06:07;10.98;;;10.08;;
66923;SDS011;53835;47.984;7.844;2022-08-19T03:08:35;10.67;;;9.77;;
66923;SDS011;53835;47.984;7.844;2022-08-19T03:11:03;12.00;;;10.65;;
66923;SDS011;53835;47.984;7.844;2022-08-19T03:13:30;11.25;;;10.10;;
66923;SDS011;53835;47.984;7.844;2022-08-19T03:15:57;11.70;;;10.70;;
66923;SDS011;53835;47.984;7.844;2022-08-19T03:18:25;11.68;;;10.68;;
66923;SDS011;53835;47.984;7.844;2022-08-19T03:20:52;11.75;;;10.53;;
66923;SDS011;53835;47.984;7.844;2022-08-19T03:23:20;11.85;;;10.63;;
66923;SDS011;53835;47.984;7.844;2022-08-19T03:25:48;11.87;;;10.03;;
66923;SDS011;53835;47.984;7.844;2022-08-19T03:28:16;12.47;;;10.07;;
66923;SDS011;53835;47.984;7.844;2022-08-19T03:30:54;10.60;;;9.70;;
66923;SDS011;53835;47.984;7.844;2022-08-19T03:33:12;12.27;;;11.17;;
66923;SDS011;53835;47.984;7.844;2022-08-19T03:35:39;11.10;;;10.20;;
66923;SDS011;53835;47.984;7.844;2022-08-19T03:38:07;11.55;;;10.40;;
66923;SDS011;53835;47.984;7.844;2022-08-19T03:40:36;11.48;;;10.38;;
66923;SDS011;53835;47.984;7.844;2022-08-19T03:43:03;12.47;;;10.73;;
66923;SDS011;53835;47.984;7.844;2022-08-19T03:45:31;12.82;;;11.63;;
66923;SDS011;53835;47.984;7.844;2022-08-19T03:47:59;11.30;;;10.10;;
66923;SDS011;53835;47.984;7.844;2022-08-19T03:50:26;12.87;;;11.57;;
66923;SDS011;53835;47.984;7.844;2022-08-19T03:52:53;12.85;;;11.15;;
66923;SDS011;53835;47.984;7.844;2022-08-19T03:55:21;13.22;;;11.45;;
66923;SDS011;53835;47.984;7.844;2022-08-19T03:57:48;12.97;;;11.63;;
66923;SDS011;53835;47.984;7.844;2022-08-19T04:00:15;13.93;;;11.70;;
66923;SDS011;53835;47.984;7.844;2022-08-19T04:02:43;13.03;;;11.73;;
66923;SDS011;53835;47.984;7.844;2022-08-19T04:05:10;13.75;;;11.90;;
66923;SDS011;53835;47.984;7.844;2022-08-19T04:07:39;13.00;;;11.43;;
66923;SDS011;53835;47.984;7.844;2022-08-19T04:10:06;12.83;;;11.57;;
66923;SDS011;53835;47.984;7.844;2022-08-19T04:12:34;12.82;;;11.43;;
66923;SDS011;53835;47.984;7.844;2022-08-19T04:15:01;13.83;;;11.60;;
66923;SDS011;53835;47.984;7.844;2022-08-19T04:17:29;12.33;;;11.20;;
66923;SDS011;53835;47.984;7.844;2022-08-19T04:19:56;14.77;;;12.60;;
66923;SDS011;53835;47.984;7.844;2022-08-19T04:22:23;12.45;;;11.25;;
66923;SDS011;53835;47.984;7.844;2022-08-19T04:24:51;12.75;;;11.53;;
66923;SDS011;53835;47.984;7.844;2022-08-19T04:27:18;12.63;;;11.33;;
66923;SDS011;53835;47.984;7.844;2022-08-19T04:29:45;13.07;;;11.73;;
66923;SDS011;53835;47.984;7.844;2022-08-19T04:32:13;13.63;;;12.03;;
66923;SDS011;53835;47.984;7.844;2022-08-19T04:34:41;12.63;;;11.43;;
66923;SDS011;53835;47.984;7.844;2022-08-19T04:37:09;12.13;;;10.93;;
66923;SDS011;53835;47.984;7.844;2022-08-19T04:39:39;13.27;;;11.87;;
66923;SDS011;53835;47.984;7.844;2022-08-19T04:42:24;12.40;;;11.30;;
66923;SDS011;53835;47.984;7.844;2022-08-19T04:45:07;12.53;;;11.23;;
66923;SDS011;53835;47.984;7.844;2022-08-19T04:47:36;12.87;;;11.67;;
66923;SDS011;53835;47.984;7.844;2022-08-19T04:50:04;13.00;;;11.80;;
66923;SDS011;53835;47.984;7.844;2022-08-19T04:52:31;12.67;;;11.50;;
66923;SDS011;53835;47.984;7.844;2022-08-19T04:54:59;13.80;;;12.17;;
66923;SDS011;53835;47.984;7.844;2022-08-19T04:57:26;14.27;;;12.80;;
66923;SDS011;53835;47.984;7.844;2022-08-19T04:59:54;13.10;;;11.73;;
66923;SDS011;53835;47.984;7.844;2022-08-19T05:02:21;13.20;;;11.80;;
66923;SDS011;53835;47.984;7.844;2022-08-19T05:05:01;13.80;;;12.40;;
66923;SDS011;53835;47.984;7.844;2022-08-19T05:07:20;13.77;;;12.47;;
66923;SDS011;53835;47.984;7.844;2022-08-19T05:09:47;13.57;;;12.27;;
66923;SDS011;53835;47.984;7.844;2022-08-19T05:12:15;13.88;;;12.43;;
66923;SDS011;53835;47.984;7.844;2022-08-19T05:14:42;13.62;;;12.33;;
66923;SDS011;53835;47.984;7.844;2022-08-19T05:17:11;13.05;;;11.80;;
66923;SDS011;53835;47.984;7.844;2022-08-19T05:19:39;13.22;;;12.03;;
66923;SDS011;53835;47.984;7.844;2022-08-19T05:22:24;13.80;;;12.40;;
66923;SDS011;53835;47.984;7.844;2022-08-19T05:25:03;11.97;;;10.90;;
66923;SDS011;53835;47.984;7.844;2022-08-19T05:27:31;12.95;;;11.73;;
66923;SDS011;53835;47.984;7.844;2022-08-19T05:29:59;13.43;;;12.13;;
66923;SDS011;53835;47.984;7.844;2022-08-19T05:32:27;12.95;;;11.78;;
66923;SDS011;53835;47.984;7.844;2022-08-19T05:34:55;13.00;;;11.70;;
66923;SDS011;53835;47.984;7.844;2022-08-19T05:37:22;12.68;;;11.65;;
66923;SDS011;53835;47.984;7.844;2022-08-19T05:39:51;14.28;;;12.78;;
66923;SDS011;53835;47.984;7.844;2022-08-19T05:42:18;13.45;;;12.23;;
66923;SDS011;53835;47.984;7.844;2022-08-19T05:44:46;11.63;;;10.63;;
66923;SDS011;53835;47.984;7.844;2022-08-19T05:47:15;11.93;;;10.78;;
66923;SDS011;53835;47.984;7.844;2022-08-19T05:49:44;12.20;;;11.03;;
66923;SDS011;53835;47.984;7.844;2022-08-19T05:52:12;12.18;;;10.98;;
66923;SDS011;53835;47.984;7.844;2022-08-19T05:54:42;12.25;;;11.05;;
66923;SDS011;53835;47.984;7.844;2022-08-19T05:57:10;12.95;;;11.75;;
66923;SDS011;53835;47.984;7.844;2022-08-19T05:59:37;12.65;;;11.40;;
66923;SDS011;53835;47.984;7.844;2022-08-19T06:02:05;12.47;;;11.10;;
66923;SDS011;53835;47.984;7.844;2022-08-19T06:04:33;12.05;;;11.05;;
66923;SDS011;53835;47.984;7.844;2022-08-19T06:07:00;12.18;;;11.08;;
66923;SDS011;53835;47.984;7.844;2022-08-19T06:09:28;11.70;;;10.70;;
66923;SDS011;53835;47.984;7.844;2022-08-19T06:11:56;11.05;;;10.15;;
66923;SDS011;53835;47.984;7.844;2022-08-19T06:14:31;11.22;;;10.15;;
66923;SDS011;53835;47.984;7.844;2022-08-19T06:16:54;11.48;;;10.48;;
66923;SDS011;53835;47.984;7.844;2022-08-19T06:19:22;11.30;;;10.30;;
66923;SDS011;53835;47.984;7.844;2022-08-19T06:21:51;12.25;;;10.98;;
66923;SDS011;53835;47.984;7.844;2022-08-19T06:24:21;11.03;;;10.03;;
66923;SDS011;53835;47.984;7.844;2022-08-19T06:26:50;11.75;;;10.68;;
66923;SDS011;53835;47.984;7.844;2022-08-19T06:29:20;11.53;;;10.45;;
66923;SDS011;53835;47.984;7.844;2022-08-19T06:31:48;11.10;;;10.00;;
66923;SDS011;53835;47.984;7.844;2022-08-19T06:34:16;9.28;;;8.48;;
66923;SDS011;53835;47.984;7.844;2022-08-19T06:36:45;10.72;;;9.65;;
66923;SDS011;53835;47.984;7.844;2022-08-19T06:39:16;11.12;;;10.23;;
66923;SDS011;53835;47.984;7.844;2022-08-19T06:41:47;10.00;;;9.13;;
66923;SDS011;53835;47.984;7.844;2022-08-19T06:44:11;10.53;;;9.53;;
66923;SDS011;53835;47.984;7.844;2022-08-19T06:46:39;10.30;;;9.40;;
66923;SDS011;53835;47.984;7.844;2022-08-19T06:49:07;10.70;;;9.60;;
66923;SDS011;53835;47.984;7.844;2022-08-19T06:51:36;11.08;;;9.98;;
66923;SDS011;53835;47.984;7.844;2022-08-19T06:54:05;11.90;;;10.90;;
66923;SDS011;53835;47.984;7.844;2022-08-19T06:56:33;11.48;;;10.43;;
66923;SDS011;53835;47.984;7.844;2022-08-19T06:59:05;11.12;;;10.00;;
66923;SDS011;53835;47.984;7.844;2022-08-19T07:01:29;10.63;;;9.58;;
66923;SDS011;53835;47.984;7.844;2022-08-19T07:03:57;10.43;;;9.45;;
66923;SDS011;53835;47.984;7.844;2022-08-19T07:06:26;10.72;;;9.73;;
66923;SDS011;53835;47.984;7.844;2022-08-19T07:08:54;11.85;;;10.60;;
66923;SDS011;53835;47.984;7.844;2022-08-19T07:11:24;12.63;;;11.53;;
66923;SDS011;53835;47.984;7.844;2022-08-19T07:13:52;11.75;;;10.55;;
66923;SDS011;53835;47.984;7.844;2022-08-19T07:16:21;11.35;;;10.35;;
66923;SDS011;53835;47.984;7.844;2022-08-19T07:18:49;12.33;;;10.78;;
66923;SDS011;53835;47.984;7.844;2022-08-19T07:21:19;11.48;;;10.48;;
66923;SDS011;53835;47.984;7.844;2022-08-19T07:23:48;11.55;;;10.45;;
66923;SDS011;53835;47.984;7.844;2022-08-19T07:26:22;12.28;;;11.18;;
66923;SDS011;53835;47.984;7.844;2022-08-19T07:28:46;14.50;;;12.93;;
66923;SDS011;53835;47.984;7.844;2022-08-19T07:31:15;12.55;;;11.45;;
66923;SDS011;53835;47.984;7.844;2022-08-19T07:33:45;12.70;;;11.60;;
66923;SDS011;53835;47.984;7.844;2022-08-19T07:36:14;13.38;;;12.07;;
66923;SDS011;53835;47.984;7.844;2022-08-19T07:38:43;14.25;;;12.45;;
66923;SDS011;53835;47.984;7.844;2022-08-19T07:41:24;13.70;;;12.05;;
66923;SDS011;53835;47.984;7.844;2022-08-19T07:43:44;13.83;;;12.53;;
66923;SDS011;53835;47.984;7.844;2022-08-19T07:46:12;14.18;;;12.58;;
66923;SDS011;53835;47.984;7.844;2022-08-19T07:48:44;13.15;;;11.85;;
66923;SDS011;53835;47.984;7.844;2022-08-19T07:51:18;15.05;;;13.50;;
66923;SDS011;53835;47.984;7.844;2022-08-19T07:53:47;14.63;;;13.20;;
66923;SDS011;53835;47.984;7.844;2022-08-19T07:56:17;15.28;;;13.75;;
66923;SDS011;53835;47.984;7.844;2022-08-19T07:58:46;14.73;;;13.43;;
66923;SDS011;53835;47.984;7.844;2022-08-19T08:01:15;16.02;;;14.50;;
66923;SDS011;53835;47.984;7.844;2022-08-19T08:03:42;16.23;;;14.80;;
66923;SDS011;53835;47.984;7.844;2022-08-19T08:06:27;16.23;;;14.63;;
66923;SDS011;53835;47.984;7.844;2022-08-19T08:09:14;18.50;;;16.57;;
66923;SDS011;53835;47.984;7.844;2022-08-19T08:11:46;17.25;;;15.45;;
66923;SDS011;53835;47.984;7.844;2022-08-19T08:14:20;17.00;;;15.35;;
66923;SDS011;53835;47.984;7.844;2022-08-19T08:16:43;16.27;;;14.83;;
66923;SDS011;53835;47.984;7.844;2022-08-19T08:19:12;18.30;;;16.17;;
66923;SDS011;53835;47.984;7.844;2022-08-19T08:21:41;18.55;;;16.62;;
66923;SDS011;53835;47.984;7.844;2022-08-19T08:24:08;17.35;;;15.72;;
66923;SDS011;53835;47.984;7.844;2022-08-19T08:26:36;19.07;;;17.27;;
66923;SDS011;53835;47.984;7.844;2022-08-19T08:29:03;18.77;;;16.93;;
66923;SDS011;53835;47.984;7.844;2022-08-19T08:31:31;18.95;;;16.87;;
66923;SDS011;53835;47.984;7.844;2022-08-19T08:33:59;20.20;;;18.23;;
66923;SDS011;53835;47.984;7.844;2022-08-19T08:36:27;18.55;;;16.85;;
66923;SDS011;53835;47.984;7.844;2022-08-19T08:38:54;19.82;;;17.80;;
66923;SDS011;53835;47.984;7.844;2022-08-19T08:43:52;18.85;;;16.90;;
66923;SDS011;53835;47.984;7.844;2022-08-19T08:46:22;18.17;;;16.17;;
66923;SDS011;53835;47.984;7.844;2022-08-19T08:48:49;17.55;;;15.90;;
66923;SDS011;53835;47.984;7.844;2022-08-19T08:51:24;19.60;;;17.57;;
66923;SDS011;53835;47.984;7.844;2022-08-19T08:53:48;20.12;;;18.02;;
66923;SDS011;53835;47.984;7.844;2022-08-19T08:56:16;18.87;;;16.97;;
66923;SDS011;53835;47.984;7.844;2022-08-19T09:01:13;20.97;;;18.90;;
66923;SDS011;53835;47.984;7.844;2022-08-19T09:03:41;21.27;;;19.20;;
66923;SDS011;53835;47.984;7.844;2022-08-19T09:06:17;20.30;;;18.05;;
66923;SDS011;53835;47.984;7.844;2022-08-19T09:09:02;20.75;;;18.12;;
66923;SDS011;53835;47.984;7.844;2022-08-19T09:11:28;20.40;;;18.30;;
66923;SDS011;53835;47.984;7.844;2022-08-19T09:16:21;20.35;;;18.35;;
66923;SDS011;53835;47.984;7.844;2022-08-19T09:18:51;25.27;;;22.85;;
66923;SDS011;53835;47.984;7.844;2022-08-19T09:21:24;20.82;;;18.77;;
66923;SDS011;53835;47.984;7.844;2022-08-19T09:23:49;21.07;;;18.77;;
66923;SDS011;53835;47.984;7.844;2022-08-19T09:26:17;20.72;;;18.52;;
66923;SDS011;53835;47.984;7.844;2022-08-19T09:28:46;21.50;;;19.40;;
66923;SDS011;53835;47.984;7.844;2022-08-19T09:31:16;23.57;;;21.05;;
66923;SDS011;53835;47.984;7.844;2022-08-19T09:33:43;23.12;;;20.20;;
66923;SDS011;53835;47.984;7.844;2022-08-19T09:36:11;22.50;;;20.25;;
66923;SDS011;53835;47.984;7.844;2022-08-19T09:38:39;21.68;;;18.90;;
66923;SDS011;53835;47.984;7.844;2022-08-19T09:41:08;21.50;;;19.30;;
66923;SDS011;53835;47.984;7.844;2022-08-19T09:43:38;21.05;;;18.85;;
66923;SDS011;53835;47.984;7.844;2022-08-19T09:46:05;21.60;;;19.10;;
66923;SDS011;53835;47.984;7.844;2022-08-19T09:48:35;21.55;;;19.35;;
66923;SDS011;53835;47.984;7.844;2022-08-19T09:51:06;20.08;;;18.25;;
66923;SDS011;53835;47.984;7.844;2022-08-19T09:53:34;24.10;;;17.80;;
66923;SDS011;53835;47.984;7.844;2022-08-19T09:56:02;19.87;;;17.75;;
66923;SDS011;53835;47.984;7.844;2022-08-19T09:58:30;20.05;;;18.05;;
66923;SDS011;53835;47.984;7.844;2022-08-19T10:00:58;22.22;;;18.62;;
66923;SDS011;53835;47.984;7.844;2022-08-19T10:03:26;21.40;;;18.52;;
66923;SDS011;53835;47.984;7.844;2022-08-19T10:05:55;20.80;;;18.70;;
66923;SDS011;53835;47.984;7.844;2022-08-19T10:08:24;20.50;;;18.30;;
66923;SDS011;53835;47.984;7.844;2022-08-19T10:10:55;18.65;;;16.80;;
66923;SDS011;53835;47.984;7.844;2022-08-19T10:13:24;18.87;;;16.95;;
66923;SDS011;53835;47.984;7.844;2022-08-19T10:15:52;18.30;;;16.55;;
66923;SDS011;53835;47.984;7.844;2022-08-19T10:18:20;18.45;;;16.55;;
66923;SDS011;53835;47.984;7.844;2022-08-19T10:20:48;19.27;;;17.37;;
66923;SDS011;53835;47.984;7.844;2022-08-19T10:23:17;19.60;;;17.70;;
66923;SDS011;53835;47.984;7.844;2022-08-19T10:25:44;19.62;;;17.75;;
66923;SDS011;53835;47.984;7.844;2022-08-19T10:28:12;18.35;;;16.45;;
66923;SDS011;53835;47.984;7.844;2022-08-19T10:30:39;20.32;;;16.62;;
66923;SDS011;53835;47.984;7.844;2022-08-19T10:33:08;19.52;;;17.60;;
66923;SDS011;53835;47.984;7.844;2022-08-19T10:35:35;19.35;;;16.37;;
66923;SDS011;53835;47.984;7.844;2022-08-19T10:38:02;20.43;;;18.32;;
66923;SDS011;53835;47.984;7.844;2022-08-19T10:40:30;18.60;;;16.80;;
66923;SDS011;53835;47.984;7.844;2022-08-19T10:42:57;19.60;;;17.57;;
66923;SDS011;53835;47.984;7.844;2022-08-19T10:45:24;20.52;;;18.30;;
66923;SDS011;53835;47.984;7.844;2022-08-19T10:47:52;19.57;;;17.57;;
66923;SDS011;53835;47.984;7.844;2022-08-19T10:50:20;21.33;;;17.67;;
66923;SDS011;53835;47.984;7.844;2022-08-19T10:53:06;19.35;;;17.30;;
66923;SDS011;53835;47.984;7.844;2022-08-19T10:55:37;19.65;;;17.75;;
66923;SDS011;53835;47.984;7.844;2022-08-19T10:58:23;22.82;;;18.07;;
66923;SDS011;53835;47.984;7.844;2022-08-19T11:00:53;18.75;;;16.85;;
66923;SDS011;53835;47.984;7.844;2022-08-19T11:03:20;18.12;;;16.32;;
66923;SDS011;53835;47.984;7.844;2022-08-19T11:05:57;19.55;;;17.62;;
66923;SDS011;53835;47.984;7.844;2022-08-19T11:08:16;19.95;;;17.00;;
66923;SDS011;53835;47.984;7.844;2022-08-19T11:10:44;20.08;;;17.77;;
66923;SDS011;53835;47.984;7.844;2022-08-19T11:13:11;19.15;;;17.15;;
66923;SDS011;53835;47.984;7.844;2022-08-19T11:15:38;18.67;;;16.52;;
66923;SDS011;53835;47.984;7.844;2022-08-19T11:18:05;18.30;;;16.50;;
66923;SDS011;53835;47.984;7.844;2022-08-19T11:20:34;16.05;;;13.95;;
66923;SDS011;53835;47.984;7.844;2022-08-19T11:23:01;16.37;;;14.75;;
66923;SDS011;53835;47.984;7.844;2022-08-19T11:25:28;16.90;;;15.30;;
66923;SDS011;53835;47.984;7.844;2022-08-19T11:27:56;16.45;;;14.85;;
66923;SDS011;53835;47.984;7.844;2022-08-19T11:30:23;17.67;;;15.88;;
66923;SDS011;53835;47.984;7.844;2022-08-19T11:32:50;17.67;;;15.58;;
66923;SDS011;53835;47.984;7.844;2022-08-19T11:35:18;18.82;;;16.25;;
66923;SDS011;53835;47.984;7.844;2022-08-19T11:37:46;22.82;;;20.48;;
66923;SDS011;53835;47.984;7.844;2022-08-19T11:40:13;28.42;;;22.32;;
66923;SDS011;53835;47.984;7.844;2022-08-19T11:42:40;22.35;;;19.40;;
66923;SDS011;53835;47.984;7.844;2022-08-19T11:45:23;23.38;;;20.62;;
66923;SDS011;53835;47.984;7.844;2022-08-19T11:47:51;22.15;;;19.07;;
66923;SDS011;53835;47.984;7.844;2022-08-19T11:50:18;21.25;;;18.92;;
66923;SDS011;53835;47.984;7.844;2022-08-19T11:52:46;22.95;;;19.73;;
66923;SDS011;53835;47.984;7.844;2022-08-19T11:55:15;22.77;;;20.32;;
66923;SDS011;53835;47.984;7.844;2022-08-19T11:57:42;22.13;;;19.02;;
66923;SDS011;53835;47.984;7.844;2022-08-19T12:00:10;23.98;;;20.97;;
66923;SDS011;53835;47.984;7.844;2022-08-19T12:02:39;24.35;;;21.17;;
66923;SDS011;53835;47.984;7.844;2022-08-19T12:05:07;27.65;;;20.60;;
66923;SDS011;53835;47.984;7.844;2022-08-19T12:07:34;24.30;;;19.92;;
66923;SDS011;53835;47.984;7.844;2022-08-19T12:10:02;24.77;;;21.23;;
66923;SDS011;53835;47.984;7.844;2022-08-19T12:12:29;20.82;;;18.90;;
66923;SDS011;53835;47.984;7.844;2022-08-19T12:14:56;19.12;;;17.23;;
66923;SDS011;53835;47.984;7.844;2022-08-19T12:17:25;20.30;;;17.70;;
66923;SDS011;53835;47.984;7.844;2022-08-19T12:19:53;18.40;;;16.50;;
66923;SDS011;53835;47.984;7.844;2022-08-19T12:22:20;17.02;;;15.32;;
66923;SDS011;53835;47.984;7.844;2022-08-19T12:24:47;16.82;;;15.15;;
66923;SDS011;53835;47.984;7.844;2022-08-19T12:27:17;16.10;;;14.60;;
66923;SDS011;53835;47.984;7.844;2022-08-19T12:29:44;15.30;;;13.70;;
66923;SDS011;53835;47.984;7.844;2022-08-19T12:32:11;14.87;;;13.48;;
66923;SDS011;53835;47.984;7.844;2022-08-19T12:34:39;18.25;;;14.25;;
66923;SDS011;53835;47.984;7.844;2022-08-19T12:37:06;16.93;;;14.35;;
66923;SDS011;53835;47.984;7.844;2022-08-19T12:39:34;14.93;;;13.40;;
66923;SDS011;53835;47.984;7.844;2022-08-19T12:42:02;14.47;;;13.18;;
66923;SDS011;53835;47.984;7.844;2022-08-19T12:44:29;14.28;;;12.95;;
66923;SDS011;53835;47.984;7.844;2022-08-19T12:46:58;14.60;;;13.18;;
66923;SDS011;53835;47.984;7.844;2022-08-19T12:49:27;13.88;;;12.60;;
66923;SDS011;53835;47.984;7.844;2022-08-19T12:51:55;14.28;;;12.98;;
66923;SDS011;53835;47.984;7.844;2022-08-19T12:54:23;14.78;;;12.82;;
66923;SDS011;53835;47.984;7.844;2022-08-19T12:56:50;14.03;;;12.53;;
66923;SDS011;53835;47.984;7.844;2022-08-19T12:59:18;13.38;;;12.15;;
66923;SDS011;53835;47.984;7.844;2022-08-19T13:01:45;12.90;;;11.60;;
66923;SDS011;53835;47.984;7.844;2022-08-19T13:04:12;13.03;;;11.80;;
66923;SDS011;53835;47.984;7.844;2022-08-19T13:06:40;13.53;;;12.28;;
66923;SDS011;53835;47.984;7.844;2022-08-19T13:09:07;13.38;;;12.07;;
66923;SDS011;53835;47.984;7.844;2022-08-19T13:11:35;13.70;;;12.45;;
66923;SDS011;53835;47.984;7.844;2022-08-19T13:14:04;14.93;;;13.18;;
66923;SDS011;53835;47.984;7.844;2022-08-19T13:16:31;13.83;;;12.55;;
66923;SDS011;53835;47.984;7.844;2022-08-19T13:18:59;13.85;;;12.35;;
66923;SDS011;53835;47.984;7.844;2022-08-19T13:21:28;15.03;;;13.30;;
66923;SDS011;53835;47.984;7.844;2022-08-19T13:23:56;14.33;;;12.93;;
66923;SDS011;53835;47.984;7.844;2022-08-19T13:26:23;14.53;;;13.22;;
66923;SDS011;53835;47.984;7.844;2022-08-19T13:28:51;15.75;;;14.13;;
66923;SDS011;53835;47.984;7.844;2022-08-19T13:31:38;13.13;;;11.80;;
66923;SDS011;53835;47.984;7.844;2022-08-19T13:34:28;12.00;;;10.80;;
66923;SDS011;53835;47.984;7.844;2022-08-19T13:36:55;13.05;;;11.75;;
66923;SDS011;53835;47.984;7.844;2022-08-19T13:39:22;11.10;;;9.85;;
66923;SDS011;53835;47.984;7.844;2022-08-19T13:41:50;12.50;;;10.70;;
66923;SDS011;53835;47.984;7.844;2022-08-19T13:44:17;11.43;;;10.32;;
66923;SDS011;53835;47.984;7.844;2022-08-19T13:46:46;11.35;;;10.28;;
66923;SDS011;53835;47.984;7.844;2022-08-19T13:49:14;11.05;;;9.73;;
66923;SDS011;53835;47.984;7.844;2022-08-19T13:51:42;13.22;;;12.05;;
66923;SDS011;53835;47.984;7.844;2022-08-19T13:54:10;11.93;;;10.82;;
66923;SDS011;53835;47.984;7.844;2022-08-19T13:56:41;11.00;;;9.90;;
66923;SDS011;53835;47.984;7.844;2022-08-19T13:59:09;12.03;;;10.82;;
66923;SDS011;53835;47.984;7.844;2022-08-19T14:01:36;9.85;;;8.95;;
66923;SDS011;53835;47.984;7.844;2022-08-19T14:04:04;8.80;;;8.10;;
66923;SDS011;53835;47.984;7.844;2022-08-19T14:06:32;8.45;;;7.62;;
66923;SDS011;53835;47.984;7.844;2022-08-19T14:08:59;7.20;;;6.60;;
66923;SDS011;53835;47.984;7.844;2022-08-19T14:11:28;6.87;;;6.28;;
66923;SDS011;53835;47.984;7.844;2022-08-19T14:13:56;7.50;;;6.80;;
66923;SDS011;53835;47.984;7.844;2022-08-19T14:16:23;6.92;;;6.40;;
66923;SDS011;53835;47.984;7.844;2022-08-19T14:18:50;7.47;;;6.80;;
66923;SDS011;53835;47.984;7.844;2022-08-19T14:21:20;7.78;;;7.08;;
66923;SDS011;53835;47.984;7.844;2022-08-19T14:23:48;7.67;;;7.08;;
66923;SDS011;53835;47.984;7.844;2022-08-19T14:26:17;8.08;;;7.47;;
66923;SDS011;53835;47.984;7.844;2022-08-19T14:28:45;9.23;;;8.28;;
66923;SDS011;53835;47.984;7.844;2022-08-19T14:31:12;8.90;;;8.15;;
66923;SDS011;53835;47.984;7.844;2022-08-19T14:33:42;8.98;;;8.28;;
66923;SDS011;53835;47.984;7.844;2022-08-19T14:36:09;9.13;;;8.05;;
66923;SDS011;53835;47.984;7.844;2022-08-19T14:38:36;10.25;;;9.25;;
66923;SDS011;53835;47.984;7.844;2022-08-19T14:41:11;10.95;;;9.63;;